KLAW/LAW METAR and TAF weather

Enter ICAO airport designator
Station Type Date Time Source
KLAW METAR 2019/10/15 17:53 UTC NOAA

KLAW 151753Z 29006KT 10SM CLR 29/16 A2987 RMK AO2 SLP102 T02890161 10289 20200 58003


Station Type Date Time Source
KLAW Decoded METAR 2019/10/15 17:53 UTC NOAA

LAWTON - FORT SILL REGIONAL, OK, United States (KLAW) 34-34N 98-25W 337M
Oct 15, 2019 - 01:53 PM EDT / 2019.10.15 1753 UTC
Wind: from the WNW (290 degrees) at 7 MPH (6 KT):0
Visibility: 10 mile(s):0
Sky conditions: clear
Temperature: 84.0 F (28.9 C)
Dew Point: 61.0 F (16.1 C)
Relative Humidity: 45%
Pressure (altimeter): 29.87 in. Hg (1011 hPa)
Pressure tendency: 0.01 inches (0.3 hPa) lower than three hours ago
ob: KLAW 151753Z 29006KT 10SM CLR 29/16 A2987 RMK AO2 SLP102 T02890161 10289 20200 58003
cycle: 18

Station Type Date Time Source
KLAW TAF 2019/10/15 18:42 UTC NOAA

TAF KLAW 151741Z 1518/1618 30012KT P6SM SCT150
FM151900 35018G26KT P6SM SCT015
TEMPO 1519/1523 BKN015
FM160000 01014KT P6SM SKC

Example: see airport list